createdAt,value
2023-01-03T00:00:26.974Z,95.33
2023-01-03T00:01:30.124Z,95.31
2023-01-03T00:02:31.795Z,94.90
2023-01-03T00:03:33.370Z,95.40
2023-01-03T00:04:35.035Z,94.56
2023-01-03T00:05:36.751Z,94.52
2023-01-03T00:06:46.598Z,93.99
2023-01-03T00:07:48.108Z,93.15
2023-01-03T00:08:50.447Z,93.21
2023-01-03T00:09:51.954Z,92.44
2023-01-03T00:10:53.519Z,92.10
2023-01-03T00:12:13.665Z,92.22
2023-01-03T00:13:15.190Z,91.53
2023-01-03T00:14:25.657Z,91.52
2023-01-03T00:15:27.400Z,90.98
2023-01-03T00:16:28.942Z,90.50
2023-01-03T00:17:30.547Z,90.18
2023-01-03T00:18:32.088Z,89.35
2023-01-03T00:19:36.650Z,89.29
2023-01-03T00:20:38.287Z,88.00
2023-01-03T00:21:41.458Z,88.75
2023-01-03T00:22:43.022Z,87.54
2023-01-03T00:23:44.630Z,88.17
2023-01-03T00:24:47.881Z,88.53
2023-01-03T00:25:49.409Z,88.51
2023-01-03T00:26:51.439Z,88.83
2023-01-03T00:27:53.067Z,89.26
2023-01-03T00:28:54.652Z,92.17
2023-01-03T00:29:56.216Z,95.73
2023-01-03T00:30:57.786Z,96.49
2023-01-03T00:31:59.906Z,95.47
2023-01-03T00:33:01.652Z,94.71
2023-01-03T00:34:04.115Z,93.83
2023-01-03T00:35:06.290Z,94.31
2023-01-03T00:36:09.585Z,94.38
2023-01-03T00:37:11.374Z,94.38
2023-01-03T00:38:12.916Z,94.65
2023-01-03T00:39:14.905Z,94.87
2023-01-03T00:40:16.536Z,94.61
2023-01-03T00:41:19.764Z,94.91
2023-01-03T00:42:21.303Z,94.39
2023-01-03T00:43:31.500Z,95.31
2023-01-03T00:44:33.606Z,95.41
2023-01-03T00:45:35.828Z,94.76
2023-01-03T00:46:37.505Z,94.77
2023-01-03T00:47:39.097Z,94.55
2023-01-03T00:48:41.411Z,94.00
2023-01-03T00:49:42.947Z,93.29
2023-01-03T00:50:44.570Z,93.61
2023-01-03T00:51:46.145Z,92.54
2023-01-03T00:52:47.693Z,91.94
2023-01-03T00:53:52.146Z,92.54
2023-01-03T00:54:53.732Z,92.12
2023-01-03T00:55:55.937Z,91.55
2023-01-03T00:56:57.477Z,92.15
2023-01-03T00:57:59.023Z,91.18
2023-01-03T00:59:01.171Z,90.97
2023-01-03T01:00:03.928Z,91.70
2023-01-03T01:01:11.606Z,91.40
2023-01-03T01:02:13.431Z,92.21
2023-01-03T01:03:18.062Z,92.58
2023-01-03T01:04:21.471Z,92.86
2023-01-03T01:05:23.420Z,93.47
2023-01-03T01:06:34.004Z,93.20
2023-01-03T01:07:35.960Z,93.44
2023-01-03T01:08:37.605Z,93.82
2023-01-03T01:09:39.175Z,94.34
2023-01-03T01:11:01.829Z,94.21
2023-01-03T01:12:05.558Z,92.96
2023-01-03T01:13:07.074Z,92.79
2023-01-03T01:14:22.422Z,93.23
2023-01-03T01:15:24.127Z,92.04
2023-01-03T01:16:31.378Z,92.10
2023-01-03T01:17:32.970Z,91.13
2023-01-03T01:18:35.697Z,89.55
2023-01-03T01:19:40.291Z,89.69
2023-01-03T01:20:41.861Z,88.33
2023-01-03T01:21:44.194Z,89.21
2023-01-03T01:22:45.762Z,89.39
2023-01-03T01:23:47.379Z,87.60
2023-01-03T01:24:49.182Z,88.24
2023-01-03T01:25:50.749Z,87.46
2023-01-03T01:26:52.539Z,88.34
2023-01-03T01:27:54.056Z,89.08
2023-01-03T01:28:56.090Z,88.70
2023-01-03T01:29:57.847Z,88.88
2023-01-03T01:31:00.847Z,88.53
2023-01-03T01:32:03.003Z,89.17
2023-01-03T01:33:04.581Z,89.03
2023-01-03T01:34:06.343Z,89.50
2023-01-03T01:35:08.283Z,90.47
2023-01-03T01:36:17.904Z,92.33
2023-01-03T01:37:19.436Z,92.82
2023-01-03T01:38:21.032Z,92.94
2023-01-03T01:39:25.497Z,93.45
2023-01-03T01:40:27.455Z,94.07
2023-01-03T01:41:49.775Z,95.37
2023-01-03T01:43:09.909Z,97.54
2023-01-03T01:44:48.418Z,97.59
2023-01-03T01:45:50.011Z,97.31
2023-01-03T01:46:52.636Z,96.90
2023-01-03T01:47:59.981Z,96.89
2023-01-03T01:49:10.895Z,96.77
2023-01-03T01:50:20.911Z,97.45
2023-01-03T01:51:24.694Z,99.04
2023-01-03T01:52:28.486Z,100.00
2023-01-03T01:53:34.596Z,100.00
2023-01-03T01:54:36.306Z,100.00
2023-01-03T01:55:48.230Z,100.00
2023-01-03T01:56:52.899Z,100.00
2023-01-03T01:57:54.706Z,100.00
2023-01-03T01:58:56.883Z,100.00
2023-01-03T01:59:58.468Z,100.00
2023-01-03T02:01:00.401Z,100.00
2023-01-03T02:02:02.520Z,100.00
2023-01-03T02:03:04.721Z,100.00
2023-01-03T02:04:17.505Z,100.00
2023-01-03T02:05:20.883Z,100.00
2023-01-03T02:06:24.239Z,100.00
2023-01-03T02:07:26.141Z,100.00
2023-01-03T02:08:27.670Z,100.00
2023-01-03T02:09:32.253Z,100.00
2023-01-03T02:10:45.884Z,100.00
2023-01-03T02:12:30.956Z,100.00
2023-01-03T02:14:03.257Z,100.00
2023-01-03T02:15:25.205Z,100.00
2023-01-03T02:16:26.830Z,100.00
2023-01-03T02:17:47.215Z,100.00
2023-01-03T02:18:54.937Z,100.00
2023-01-03T02:20:11.258Z,100.00
2023-01-03T02:21:34.389Z,100.00
2023-01-03T02:23:00.422Z,100.00
2023-01-03T02:24:34.301Z,100.00
2023-01-03T02:25:51.175Z,100.00
2023-01-03T02:27:30.856Z,100.00
2023-01-03T02:28:54.451Z,100.00
2023-01-03T02:30:20.256Z,100.00
2023-01-03T02:31:55.212Z,100.00
2023-01-03T02:33:22.513Z,99.53
2023-01-03T02:34:39.555Z,99.72
2023-01-03T02:36:09.617Z,99.19
2023-01-03T02:37:26.738Z,98.82
2023-01-03T02:38:48.989Z,98.67
2023-01-03T02:39:57.954Z,98.59
2023-01-03T02:41:05.687Z,98.27
2023-01-03T02:42:49.143Z,98.38
2023-01-03T02:44:25.989Z,98.06
2023-01-03T02:45:35.360Z,98.30
2023-01-03T02:47:01.132Z,98.96
2023-01-03T02:48:14.529Z,99.16
2023-01-03T02:49:28.595Z,98.71
2023-01-03T02:50:40.633Z,97.95
2023-01-03T02:51:47.482Z,97.75
2023-01-03T02:52:51.195Z,97.70
2023-01-03T02:53:53.409Z,96.88
2023-01-03T02:55:26.414Z,96.47
2023-01-03T02:56:35.197Z,95.68
2023-01-03T02:57:43.500Z,94.39
2023-01-03T02:58:49.137Z,94.77
2023-01-03T02:59:55.177Z,94.54
2023-01-03T03:01:02.023Z,94.80
2023-01-03T03:02:05.446Z,95.37
2023-01-03T03:03:13.670Z,94.52
2023-01-03T03:04:15.550Z,94.58
2023-01-03T03:05:23.750Z,94.56
2023-01-03T03:06:47.513Z,95.05
2023-01-03T03:07:49.227Z,94.45
2023-01-03T03:08:50.812Z,94.91
2023-01-03T03:10:11.303Z,93.42
2023-01-03T03:11:32.401Z,93.87
2023-01-03T03:12:55.784Z,94.16
2023-01-03T03:14:22.564Z,93.98
2023-01-03T03:15:32.752Z,93.61
2023-01-03T03:16:47.908Z,94.09
2023-01-03T03:17:54.351Z,93.85
2023-01-03T03:19:00.504Z,93.66
2023-01-03T03:20:20.844Z,92.76
2023-01-03T03:21:45.933Z,92.20
2023-01-03T03:23:14.958Z,92.27
2023-01-03T03:24:48.097Z,90.94
2023-01-03T03:25:53.946Z,90.87
2023-01-03T03:26:58.641Z,89.74
2023-01-03T03:28:23.924Z,90.35
2023-01-03T03:29:28.421Z,90.38
2023-01-03T03:30:33.774Z,90.12
2023-01-03T03:31:43.033Z,89.91
2023-01-03T03:32:47.593Z,90.70
2023-01-03T03:33:51.109Z,90.60
2023-01-03T03:34:55.990Z,90.31
2023-01-03T03:36:04.639Z,90.10
2023-01-03T03:37:13.884Z,89.63
2023-01-03T03:38:25.759Z,89.98
2023-01-03T03:39:49.533Z,89.94
2023-01-03T03:41:18.525Z,90.57
2023-01-03T03:42:44.475Z,91.03
2023-01-03T03:44:14.530Z,91.08
2023-01-03T03:45:25.493Z,91.71
2023-01-03T03:46:34.216Z,92.62
2023-01-03T03:47:35.759Z,92.79
2023-01-03T03:49:06.354Z,93.03
2023-01-03T03:50:35.330Z,92.73
2023-01-03T03:51:41.120Z,92.45
2023-01-03T03:52:46.622Z,92.43
2023-01-03T03:53:50.141Z,93.16
2023-01-03T03:54:59.175Z,97.39
2023-01-03T03:56:09.154Z,98.97
2023-01-03T03:57:13.356Z,98.68
2023-01-03T03:58:27.854Z,99.07
2023-01-03T03:59:31.908Z,98.65
2023-01-03T04:00:38.483Z,97.60
2023-01-03T04:01:42.576Z,96.90
2023-01-03T04:02:47.248Z,96.63
2023-01-03T04:03:52.150Z,96.10
2023-01-03T04:04:59.398Z,96.40
2023-01-03T04:06:10.362Z,96.02
2023-01-03T04:07:12.299Z,95.52
2023-01-03T04:08:13.979Z,95.88
2023-01-03T04:09:16.229Z,95.01
2023-01-03T04:10:20.225Z,95.35
2023-01-03T04:11:21.899Z,95.32
2023-01-03T04:12:23.642Z,95.12
2023-01-03T04:13:25.231Z,95.29
2023-01-03T04:14:26.843Z,95.03
2023-01-03T04:15:28.423Z,95.21
2023-01-03T04:16:30.112Z,95.38
2023-01-03T04:17:31.735Z,94.91
2023-01-03T04:18:33.762Z,94.71
2023-01-03T04:19:35.288Z,94.66
2023-01-03T04:20:36.816Z,94.68
2023-01-03T04:21:38.525Z,94.01
2023-01-03T04:22:40.158Z,93.91
2023-01-03T04:23:41.692Z,94.63
2023-01-03T04:24:43.241Z,94.59
2023-01-03T04:25:44.772Z,93.61
2023-01-03T04:26:46.593Z,94.29
2023-01-03T04:27:48.167Z,93.82
2023-01-03T04:28:49.701Z,92.67
2023-01-03T04:29:51.309Z,92.03
2023-01-03T04:30:52.853Z,92.37
2023-01-03T04:31:54.575Z,92.33
2023-01-03T04:32:57.354Z,91.71
2023-01-03T04:33:58.964Z,90.88
2023-01-03T04:35:00.543Z,90.52
2023-01-03T04:36:02.147Z,90.34
2023-01-03T04:37:03.791Z,91.61
2023-01-03T04:38:05.923Z,91.54
2023-01-03T04:39:10.344Z,91.37
2023-01-03T04:40:13.423Z,91.72
2023-01-03T04:41:15.906Z,92.04
2023-01-03T04:42:36.010Z,92.55
2023-01-03T04:43:56.011Z,92.49
2023-01-03T04:44:57.691Z,92.57
2023-01-03T04:45:59.539Z,92.58
2023-01-03T04:47:01.093Z,93.22
2023-01-03T04:48:02.751Z,92.67
2023-01-03T04:49:06.659Z,92.92
2023-01-03T04:50:09.663Z,93.29
2023-01-03T04:51:11.553Z,93.08
2023-01-03T04:52:14.800Z,92.94
2023-01-03T04:53:17.435Z,93.39
2023-01-03T04:54:19.005Z,97.34
2023-01-03T04:55:20.768Z,98.28
2023-01-03T04:56:31.378Z,97.96
2023-01-03T04:57:32.889Z,97.01
2023-01-03T04:58:34.454Z,97.44
2023-01-03T04:59:37.070Z,96.23
2023-01-03T05:00:38.649Z,96.78
2023-01-03T05:01:40.419Z,96.21
2023-01-03T05:02:42.113Z,95.95
2023-01-03T05:03:43.726Z,95.62
2023-01-03T05:04:45.408Z,95.24
2023-01-03T05:05:46.990Z,95.28
2023-01-03T05:06:48.554Z,95.05
2023-01-03T05:07:50.105Z,95.13
2023-01-03T05:08:51.902Z,94.94
2023-01-03T05:09:53.474Z,94.96
2023-01-03T05:10:55.074Z,94.46
2023-01-03T05:11:57.263Z,94.06
2023-01-03T05:13:02.248Z,93.72
2023-01-03T05:14:06.912Z,94.24
2023-01-03T05:15:11.091Z,95.35
2023-01-03T05:16:14.803Z,100.00
2023-01-03T05:17:19.287Z,100.00
2023-01-03T05:18:20.967Z,100.00
2023-01-03T05:19:23.958Z,100.00
2023-01-03T05:20:44.961Z,100.00
2023-01-03T05:22:05.208Z,100.00
2023-01-03T05:23:25.381Z,100.00
2023-01-03T05:24:55.815Z,100.00
2023-01-03T05:25:58.608Z,99.82
2023-01-03T05:27:02.847Z,98.45
2023-01-03T05:28:04.955Z,97.66
2023-01-03T05:29:07.594Z,97.85
2023-01-03T05:30:09.564Z,96.31
2023-01-03T05:31:11.179Z,95.83
2023-01-03T05:32:12.798Z,93.51
2023-01-03T05:33:14.799Z,92.51
2023-01-03T05:34:16.571Z,90.55
2023-01-03T05:35:18.480Z,90.62
2023-01-03T05:36:20.135Z,90.44
2023-01-03T05:37:23.100Z,90.17
2023-01-03T05:38:24.911Z,90.75
2023-01-03T05:39:26.479Z,90.73
2023-01-03T05:40:28.064Z,92.15
2023-01-03T05:41:48.125Z,91.44
2023-01-03T05:42:49.639Z,91.28
2023-01-03T05:43:51.153Z,91.94
2023-01-03T05:44:52.729Z,92.25
2023-01-03T05:45:54.422Z,92.25
2023-01-03T05:46:56.783Z,91.88
2023-01-03T05:47:58.688Z,91.45
2023-01-03T05:49:00.362Z,91.44
2023-01-03T05:50:01.931Z,91.33
2023-01-03T05:51:03.753Z,91.72
2023-01-03T05:52:05.488Z,91.81
2023-01-03T05:53:07.134Z,91.29
2023-01-03T05:54:12.531Z,91.50
2023-01-03T05:55:14.066Z,91.07
2023-01-03T05:56:17.094Z,91.98
2023-01-03T05:57:18.647Z,91.81
2023-01-03T05:58:20.279Z,91.48
2023-01-03T05:59:22.850Z,91.42
2023-01-03T06:00:24.817Z,91.20
2023-01-03T06:01:28.290Z,90.86
2023-01-03T06:02:29.987Z,91.22
2023-01-03T06:03:31.620Z,91.45
2023-01-03T06:04:33.223Z,90.97
2023-01-03T06:05:34.862Z,91.02
2023-01-03T06:06:36.472Z,91.00
2023-01-03T06:07:38.247Z,90.18
2023-01-03T06:08:40.222Z,90.66
2023-01-03T06:09:41.738Z,90.23
2023-01-03T06:10:43.303Z,90.20
2023-01-03T06:11:45.114Z,90.26
2023-01-03T06:12:46.772Z,89.35
2023-01-03T06:13:48.294Z,90.18
2023-01-03T06:14:49.853Z,92.81
2023-01-03T06:16:10.036Z,93.61
2023-01-03T06:17:30.116Z,93.40
2023-01-03T06:18:31.647Z,93.17
2023-01-03T06:19:33.184Z,93.17
2023-01-03T06:20:34.686Z,92.33
2023-01-03T06:21:37.105Z,92.76
2023-01-03T06:22:38.770Z,92.46
2023-01-03T06:23:40.312Z,92.54
2023-01-03T06:24:41.819Z,92.45
2023-01-03T06:25:43.318Z,91.93
2023-01-03T06:26:44.828Z,91.61
2023-01-03T06:27:46.855Z,92.37
2023-01-03T06:28:48.443Z,91.60
2023-01-03T06:29:50.017Z,92.17
2023-01-03T06:30:51.640Z,91.77
2023-01-03T06:31:53.261Z,91.29
2023-01-03T06:32:54.836Z,91.22
2023-01-03T06:33:56.429Z,91.16
2023-01-03T06:34:57.993Z,91.78
2023-01-03T06:36:11.699Z,91.67
2023-01-03T06:37:13.240Z,92.02
2023-01-03T06:38:14.811Z,92.16
2023-01-03T06:39:16.445Z,92.71
2023-01-03T06:40:19.344Z,92.28
2023-01-03T06:41:21.355Z,92.05
2023-01-03T06:42:44.254Z,93.06
2023-01-03T06:43:46.035Z,93.68
2023-01-03T06:45:07.564Z,93.55
2023-01-03T06:46:29.450Z,95.42
2023-01-03T06:47:49.700Z,96.48
2023-01-03T06:49:10.130Z,96.70
2023-01-03T06:50:30.290Z,96.25
2023-01-03T06:51:51.637Z,96.68
2023-01-03T06:53:11.716Z,96.76
2023-01-03T06:54:22.200Z,96.18
2023-01-03T06:55:23.734Z,95.69
2023-01-03T06:56:26.102Z,95.07
2023-01-03T06:57:27.947Z,95.33
2023-01-03T06:58:29.926Z,95.59
2023-01-03T06:59:31.735Z,94.91
2023-01-03T07:00:36.695Z,95.24
2023-01-03T07:01:39.373Z,94.58
2023-01-03T07:02:41.073Z,94.10
2023-01-03T07:03:42.702Z,94.63
2023-01-03T07:04:44.338Z,94.57
2023-01-03T07:05:45.949Z,93.37
2023-01-03T07:06:47.553Z,93.56
2023-01-03T07:07:49.307Z,93.04
2023-01-03T07:08:51.554Z,92.75
2023-01-03T07:09:53.220Z,93.80
2023-01-03T07:10:55.429Z,93.61
2023-01-03T07:11:57.019Z,93.06
2023-01-03T07:13:19.770Z,94.08
2023-01-03T07:14:21.341Z,94.75
2023-01-03T07:15:22.919Z,95.25
2023-01-03T07:16:31.901Z,96.62
2023-01-03T07:17:33.584Z,96.18
2023-01-03T07:18:35.275Z,96.29
2023-01-03T07:19:36.810Z,95.08
2023-01-03T07:20:45.156Z,95.31
2023-01-03T07:21:47.201Z,93.92
2023-01-03T07:22:48.754Z,93.11
2023-01-03T07:23:52.374Z,92.81
2023-01-03T07:24:53.888Z,93.36
2023-01-03T07:25:56.046Z,93.29
2023-01-03T07:26:57.526Z,92.69
2023-01-03T07:28:05.748Z,92.65
2023-01-03T07:29:10.414Z,92.53
2023-01-03T07:30:12.450Z,92.60
2023-01-03T07:31:14.074Z,92.94
2023-01-03T07:32:15.732Z,93.30
2023-01-03T07:33:18.619Z,93.54
2023-01-03T07:34:20.147Z,93.54
2023-01-03T07:35:21.679Z,94.70
2023-01-03T07:36:23.265Z,94.31
2023-01-03T07:37:24.825Z,94.97
2023-01-03T07:38:26.384Z,95.07
2023-01-03T07:39:27.911Z,95.38
2023-01-03T07:40:30.141Z,94.58
2023-01-03T07:41:50.062Z,95.73
2023-01-03T07:43:10.115Z,94.95
2023-01-03T07:44:11.924Z,95.63
2023-01-03T07:45:13.499Z,95.59
2023-01-03T07:46:16.142Z,95.85
2023-01-03T07:47:17.755Z,95.19
2023-01-03T07:48:19.265Z,96.29
2023-01-03T07:49:20.819Z,96.36
2023-01-03T07:50:22.394Z,96.43
2023-01-03T07:51:23.962Z,96.60
2023-01-03T07:52:25.480Z,96.53
2023-01-03T07:53:27.870Z,96.80
2023-01-03T07:54:29.480Z,96.25
2023-01-03T07:55:35.337Z,96.07
2023-01-03T07:56:37.178Z,96.83
2023-01-03T07:57:38.899Z,97.17
2023-01-03T07:58:42.979Z,97.82
2023-01-03T07:59:44.529Z,98.69
2023-01-03T08:00:46.142Z,99.25
2023-01-03T08:01:47.830Z,97.93
2023-01-03T08:02:53.368Z,97.78
2023-01-03T08:03:55.087Z,97.45
2023-01-03T08:04:56.782Z,98.06
2023-01-03T08:06:03.619Z,97.24
2023-01-03T08:07:05.157Z,96.95
2023-01-03T08:08:06.888Z,97.64
2023-01-03T08:09:27.230Z,98.31
2023-01-03T08:10:49.052Z,100.00
2023-01-03T08:12:08.982Z,100.00
2023-01-03T08:13:19.933Z,100.00
2023-01-03T08:14:25.707Z,100.00
2023-01-03T08:15:28.566Z,99.20
2023-01-03T08:16:30.137Z,98.96
2023-01-03T08:17:31.771Z,97.43
2023-01-03T08:18:33.299Z,97.77
2023-01-03T08:19:37.813Z,97.08
2023-01-03T08:20:43.460Z,96.97
2023-01-03T08:21:45.052Z,97.12
2023-01-03T08:22:46.589Z,96.80
2023-01-03T08:23:48.932Z,96.58
2023-01-03T08:24:50.676Z,96.33
2023-01-03T08:25:52.844Z,97.32
2023-01-03T08:26:54.416Z,96.42
2023-01-03T08:28:00.748Z,99.22
2023-01-03T08:29:02.301Z,100.00
2023-01-03T08:30:04.597Z,100.00
2023-01-03T08:31:13.183Z,100.00
2023-01-03T08:32:15.639Z,99.14
2023-01-03T08:33:19.133Z,99.22
2023-01-03T08:34:29.105Z,99.82
2023-01-03T08:35:34.866Z,99.51
2023-01-03T08:36:45.470Z,99.91
2023-01-03T08:37:48.838Z,100.00
2023-01-03T08:39:00.618Z,100.00
2023-01-03T08:40:04.944Z,100.00
2023-01-03T08:41:10.006Z,99.95
2023-01-03T08:42:17.280Z,98.98
2023-01-03T08:43:19.292Z,98.88
2023-01-03T08:44:20.883Z,98.72
2023-01-03T08:45:22.539Z,98.26
2023-01-03T08:46:24.293Z,99.30
2023-01-03T08:47:26.354Z,99.30
2023-01-03T08:48:28.176Z,98.70
2023-01-03T08:49:30.048Z,99.17
2023-01-03T08:50:32.120Z,98.44
2023-01-03T08:51:33.747Z,97.66
2023-01-03T08:52:35.683Z,97.55
2023-01-03T08:53:37.341Z,97.40
2023-01-03T08:54:39.526Z,98.35
2023-01-03T08:55:41.322Z,99.21
2023-01-03T08:56:42.931Z,100.00
2023-01-03T08:57:44.504Z,100.00
2023-01-03T08:58:46.339Z,100.00
2023-01-03T08:59:47.864Z,99.88
2023-01-03T09:00:49.432Z,100.00
2023-01-03T09:01:51.217Z,99.61
2023-01-03T09:02:53.102Z,100.00
2023-01-03T09:03:54.895Z,98.68
2023-01-03T09:04:56.621Z,98.46
2023-01-03T09:06:02.712Z,99.12
2023-01-03T09:07:05.580Z,100.00
2023-01-03T09:08:07.356Z,99.92
2023-01-03T09:09:09.936Z,99.59
2023-01-03T09:10:11.706Z,98.94
2023-01-03T09:11:13.271Z,99.47
2023-01-03T09:12:14.831Z,100.00
2023-01-03T09:13:16.380Z,100.00
2023-01-03T09:14:18.041Z,99.09
2023-01-03T09:15:19.919Z,98.82
2023-01-03T09:16:21.558Z,98.27
2023-01-03T09:17:23.222Z,98.71
2023-01-03T09:18:24.756Z,97.93
2023-01-03T09:19:26.317Z,98.39
2023-01-03T09:20:27.876Z,98.59
2023-01-03T09:21:29.610Z,98.08
2023-01-03T09:22:31.192Z,99.37
2023-01-03T09:23:34.030Z,100.00
2023-01-03T09:24:35.599Z,100.00
2023-01-03T09:25:37.777Z,100.00
2023-01-03T09:26:39.434Z,100.00
2023-01-03T09:27:48.082Z,100.00
2023-01-03T09:28:50.220Z,100.00
2023-01-03T09:29:53.196Z,100.00
2023-01-03T09:30:55.023Z,100.00
2023-01-03T09:31:56.631Z,100.00
2023-01-03T09:32:58.178Z,99.78
2023-01-03T09:34:05.348Z,99.44
2023-01-03T09:35:07.531Z,99.79
2023-01-03T09:36:09.169Z,98.57
2023-01-03T09:37:10.747Z,99.34
2023-01-03T09:38:12.341Z,98.55
2023-01-03T09:39:14.433Z,99.07
2023-01-03T09:40:16.366Z,98.74
2023-01-03T09:41:25.736Z,98.29
2023-01-03T09:42:47.488Z,98.08
2023-01-03T09:43:52.581Z,98.92
2023-01-03T09:44:54.388Z,98.05
2023-01-03T09:46:01.619Z,98.83
2023-01-03T09:47:04.780Z,98.43
2023-01-03T09:48:07.113Z,99.80
2023-01-03T09:49:12.539Z,100.00
2023-01-03T09:50:39.237Z,100.00
2023-01-03T09:52:04.997Z,100.00
2023-01-03T09:53:25.296Z,100.00
2023-01-03T09:54:57.186Z,100.00
2023-01-03T09:56:19.466Z,100.00
2023-01-03T09:57:49.503Z,100.00
2023-01-03T09:59:32.287Z,100.00
2023-01-03T10:01:00.643Z,100.00
2023-01-03T10:02:45.959Z,100.00
2023-01-03T10:04:18.118Z,100.00
2023-01-03T10:06:11.102Z,100.00
2023-01-03T10:07:28.275Z,100.00
2023-01-03T10:09:02.971Z,100.00
2023-01-03T10:10:43.214Z,100.00
2023-01-03T10:12:05.799Z,100.00
2023-01-03T10:13:25.650Z,99.83
2023-01-03T10:14:42.092Z,99.11
2023-01-03T10:16:12.914Z,99.27
2023-01-03T10:17:53.731Z,99.05
2023-01-03T10:19:50.334Z,98.81
2023-01-03T10:20:57.390Z,98.80
2023-01-03T10:22:14.919Z,98.19
2023-01-03T10:23:18.388Z,98.80
2023-01-03T10:24:32.252Z,99.39
2023-01-03T10:25:36.469Z,99.97
2023-01-03T10:26:38.022Z,100.00
2023-01-03T10:27:46.885Z,100.00
2023-01-03T10:28:48.616Z,100.00
2023-01-03T10:29:53.942Z,100.00
2023-01-03T10:31:14.489Z,100.00
2023-01-03T10:32:36.577Z,100.00
2023-01-03T10:33:47.256Z,100.00
2023-01-03T10:35:16.742Z,100.00
2023-01-03T10:36:20.867Z,100.00
2023-01-03T10:37:23.875Z,100.00
2023-01-03T10:38:26.192Z,100.00
2023-01-03T10:39:31.756Z,100.00
2023-01-03T10:40:44.466Z,100.00
2023-01-03T10:41:48.363Z,100.00
2023-01-03T10:42:50.506Z,100.00
2023-01-03T10:44:03.543Z,100.00
2023-01-03T10:45:10.600Z,100.00
2023-01-03T10:46:16.824Z,100.00
2023-01-03T10:47:18.466Z,100.00
2023-01-03T10:48:20.043Z,100.00
2023-01-03T10:49:27.853Z,100.00
2023-01-03T10:50:37.793Z,100.00
2023-01-03T10:51:49.769Z,100.00
2023-01-03T10:52:58.324Z,100.00
2023-01-03T10:54:09.656Z,100.00
2023-01-03T10:55:14.988Z,100.00
2023-01-03T10:56:17.171Z,100.00
2023-01-03T10:57:40.072Z,100.00
2023-01-03T10:58:41.628Z,100.00
2023-01-03T10:59:49.320Z,100.00
2023-01-03T11:01:09.838Z,100.00
2023-01-03T11:02:16.530Z,100.00
2023-01-03T11:03:19.650Z,100.00
2023-01-03T11:04:21.341Z,100.00
2023-01-03T11:05:25.446Z,100.00
2023-01-03T11:06:27.423Z,100.00
2023-01-03T11:07:29.464Z,100.00
2023-01-03T11:08:56.433Z,100.00
2023-01-03T11:09:58.513Z,100.00
2023-01-03T11:11:00.801Z,100.00
2023-01-03T11:12:38.756Z,100.00
2023-01-03T11:13:42.255Z,100.00
2023-01-03T11:14:57.802Z,100.00
2023-01-03T11:16:01.871Z,100.00
2023-01-03T11:17:05.844Z,100.00
2023-01-03T11:18:18.379Z,100.00
2023-01-03T11:19:20.306Z,100.00
2023-01-03T11:20:35.658Z,100.00
2023-01-03T11:21:51.557Z,100.00
2023-01-03T11:23:00.850Z,100.00
2023-01-03T11:24:08.503Z,100.00
2023-01-03T11:25:13.092Z,100.00
2023-01-03T11:26:43.222Z,100.00
2023-01-03T11:27:58.400Z,100.00
2023-01-03T11:29:17.114Z,100.00
2023-01-03T11:30:27.847Z,100.00
2023-01-03T11:31:33.721Z,100.00
2023-01-03T11:32:47.161Z,100.00
2023-01-03T11:34:05.788Z,100.00
2023-01-03T11:35:26.382Z,100.00
2023-01-03T11:37:00.133Z,100.00
2023-01-03T11:38:39.040Z,100.00
2023-01-03T11:39:46.775Z,100.00
2023-01-03T11:40:52.326Z,100.00
2023-01-03T11:42:27.242Z,100.00
2023-01-03T11:43:52.118Z,100.00
2023-01-03T11:45:10.417Z,100.00
2023-01-03T11:46:21.251Z,100.00
2023-01-03T11:47:25.706Z,100.00
2023-01-03T11:49:05.936Z,100.00
2023-01-03T11:50:41.535Z,100.00
2023-01-03T11:51:48.850Z,100.00
2023-01-03T11:53:00.883Z,100.00
2023-01-03T11:54:07.284Z,100.00
2023-01-03T11:55:08.832Z,100.00
2023-01-03T11:56:34.827Z,100.00
2023-01-03T11:57:39.235Z,100.00
2023-01-03T11:59:18.075Z,100.00
2023-01-03T12:00:28.627Z,100.00
2023-01-03T12:01:49.237Z,100.00
2023-01-03T12:03:03.227Z,100.00
2023-01-03T12:04:38.595Z,100.00
2023-01-03T12:05:46.285Z,100.00
2023-01-03T12:07:37.396Z,100.00
2023-01-03T12:08:44.881Z,100.00
2023-01-03T12:10:05.300Z,99.65
2023-01-03T12:11:28.080Z,98.98
2023-01-03T12:12:29.554Z,98.83
2023-01-03T12:13:59.445Z,98.76
2023-01-03T12:15:12.382Z,98.23
2023-01-03T12:16:25.358Z,97.11
2023-01-03T12:17:54.016Z,97.00
2023-01-03T12:19:02.004Z,97.20
2023-01-03T12:20:19.601Z,97.33
2023-01-03T12:21:37.594Z,96.76
2023-01-03T12:22:49.135Z,96.00
2023-01-03T12:23:56.253Z,96.73
2023-01-03T12:25:16.596Z,95.91
2023-01-03T12:26:19.116Z,95.99
2023-01-03T12:27:44.385Z,95.41
2023-01-03T12:28:56.346Z,95.70
2023-01-03T12:30:02.498Z,95.04
2023-01-03T12:31:31.965Z,95.32
2023-01-03T12:32:59.691Z,95.60
2023-01-03T12:34:19.803Z,95.21
2023-01-03T12:35:51.111Z,95.37
2023-01-03T12:37:17.065Z,95.08
2023-01-03T12:38:25.454Z,94.75
2023-01-03T12:39:35.528Z,95.38
2023-01-03T12:40:54.244Z,94.84
2023-01-03T12:42:14.139Z,95.43
2023-01-03T12:43:33.555Z,94.60
2023-01-03T12:44:40.749Z,94.50
2023-01-03T12:46:00.897Z,94.32
2023-01-03T12:47:06.406Z,94.27
2023-01-03T12:48:10.949Z,94.44
2023-01-03T12:49:15.111Z,93.90
2023-01-03T12:50:30.692Z,93.37
2023-01-03T12:51:32.567Z,93.16
2023-01-03T12:52:35.601Z,93.01
2023-01-03T12:53:41.093Z,92.38
2023-01-03T12:54:52.376Z,92.48
2023-01-03T12:56:18.190Z,91.95
2023-01-03T12:57:25.758Z,92.34
2023-01-03T12:58:27.377Z,91.89
2023-01-03T12:59:43.833Z,91.50
2023-01-03T13:01:08.642Z,92.18
2023-01-03T13:02:47.265Z,91.78
2023-01-03T13:03:55.105Z,91.69
2023-01-03T13:05:16.510Z,91.81
2023-01-03T13:06:25.928Z,92.38
2023-01-03T13:07:34.108Z,92.40
2023-01-03T13:08:57.895Z,92.98
2023-01-03T13:10:05.672Z,93.91
2023-01-03T13:11:15.535Z,93.49
2023-01-03T13:12:21.406Z,93.40
2023-01-03T13:13:23.106Z,93.38
2023-01-03T13:14:27.889Z,93.57
2023-01-03T13:15:36.702Z,92.89
2023-01-03T13:16:44.460Z,92.82
2023-01-03T13:17:47.867Z,93.09
2023-01-03T13:18:49.977Z,92.39
2023-01-03T13:20:26.498Z,92.79
2023-01-03T13:21:49.405Z,92.56
2023-01-03T13:23:01.256Z,91.82
2023-01-03T13:24:02.818Z,92.05
2023-01-03T13:25:42.375Z,92.14
2023-01-03T13:27:22.760Z,92.47
2023-01-03T13:28:24.799Z,92.63
2023-01-03T13:29:35.110Z,92.89
2023-01-03T13:30:38.532Z,92.34
2023-01-03T13:31:40.664Z,92.32
2023-01-03T13:33:04.112Z,92.41
2023-01-03T13:34:38.078Z,92.04
2023-01-03T13:35:42.557Z,92.72
2023-01-03T13:37:08.276Z,91.77
2023-01-03T13:38:32.281Z,91.21
2023-01-03T13:39:38.183Z,91.48
2023-01-03T13:41:16.553Z,91.57
2023-01-03T13:42:33.653Z,90.92
2023-01-03T13:43:40.038Z,90.86
2023-01-03T13:44:41.945Z,91.24
2023-01-03T13:45:43.462Z,90.87
2023-01-03T13:46:45.743Z,90.51
2023-01-03T13:47:52.785Z,90.85
2023-01-03T13:48:58.858Z,90.29
2023-01-03T13:50:00.805Z,89.91
2023-01-03T13:51:15.539Z,89.91
2023-01-03T13:52:55.684Z,89.34
2023-01-03T13:54:23.825Z,89.37
2023-01-03T13:55:39.924Z,88.76
2023-01-03T13:56:44.540Z,87.93
2023-01-03T13:57:53.383Z,87.46
2023-01-03T13:59:15.226Z,87.19
2023-01-03T14:00:22.370Z,87.47
2023-01-03T14:01:42.082Z,87.34
2023-01-03T14:03:08.005Z,86.92
2023-01-03T14:04:23.172Z,87.55
2023-01-03T14:05:50.990Z,86.91
2023-01-03T14:06:52.496Z,86.90
2023-01-03T14:08:35.440Z,87.47
2023-01-03T14:09:54.462Z,87.28
2023-01-03T14:11:21.765Z,86.80
2023-01-03T14:12:44.703Z,86.98
2023-01-03T14:13:53.284Z,86.41
2023-01-03T14:14:57.024Z,87.12
2023-01-03T14:16:20.880Z,87.71
2023-01-03T14:17:32.306Z,86.73
2023-01-03T14:18:35.525Z,86.46
2023-01-03T14:19:40.954Z,88.79
2023-01-03T14:20:48.058Z,94.93
2023-01-03T14:22:34.844Z,92.88
2023-01-03T14:24:58.223Z,89.01
2023-01-03T14:26:14.710Z,87.90
2023-01-03T14:27:18.561Z,86.79
2023-01-03T14:28:26.141Z,85.92
2023-01-03T14:29:28.664Z,85.96
2023-01-03T14:30:32.465Z,84.92
2023-01-03T14:31:48.083Z,84.85
2023-01-03T14:32:49.996Z,85.29
2023-01-03T14:34:18.952Z,84.80
2023-01-03T14:35:35.783Z,84.81
2023-01-03T14:36:46.342Z,84.23
2023-01-03T14:37:47.886Z,83.97
2023-01-03T14:38:52.891Z,84.16
2023-01-03T14:40:01.950Z,83.46